sensor_id;sensor_type;location;lat;lon;timestamp;pressure;altitude;pressure_sealevel;temperature;humidity
9325;BME280;4701;51.566;6.776;2023-08-20T05:14:02;101841.81;;;19.51;97.77
9325;BME280;4701;51.566;6.776;2023-08-20T05:17:04;101840.47;;;19.48;98.10
9325;BME280;4701;51.566;6.776;2023-08-20T05:20:06;101834.16;;;19.48;97.88
9325;BME280;4701;51.566;6.776;2023-08-20T05:23:10;101834.66;;;19.50;97.94
9325;BME280;4701;51.566;6.776;2023-08-20T05:26:11;101828.81;;;19.51;98.02
9325;BME280;4701;51.566;6.776;2023-08-20T05:29:14;101841.25;;;19.54;97.68
9325;BME280;4701;51.566;6.776;2023-08-20T05:32:16;101844.53;;;19.56;97.82
9325;BME280;4701;51.566;6.776;2023-08-20T05:35:17;101843.91;;;19.59;97.85
9325;BME280;4701;51.566;6.776;2023-08-20T05:38:19;101854.38;;;19.62;98.38
9325;BME280;4701;51.566;6.776;2023-08-20T05:41:20;101846.63;;;19.64;98.28
9325;BME280;4701;51.566;6.776;2023-08-20T05:44:23;101840.47;;;19.67;97.95
9325;BME280;4701;51.566;6.776;2023-08-20T05:47:25;101852.06;;;19.69;97.76
9325;BME280;4701;51.566;6.776;2023-08-20T05:50:27;101852.06;;;19.69;97.52
9325;BME280;4701;51.566;6.776;2023-08-20T05:53:28;101855.34;;;19.71;97.23
9325;BME280;4701;51.566;6.776;2023-08-20T05:56:30;101849.53;;;19.73;97.06
9325;BME280;4701;51.566;6.776;2023-08-20T05:59:33;101851.97;;;19.74;97.08
9325;BME280;4701;51.566;6.776;2023-08-20T06:02:34;101844.19;;;19.76;97.12
9325;BME280;4701;51.566;6.776;2023-08-20T06:05:36;101853.84;;;19.79;97.03
9325;BME280;4701;51.566;6.776;2023-08-20T06:08:38;101855.19;;;19.81;97.14
9325;BME280;4701;51.566;6.776;2023-08-20T06:11:40;101857.63;;;19.83;97.19
9325;BME280;4701;51.566;6.776;2023-08-20T06:14:43;101860.63;;;19.86;97.40
9325;BME280;4701;51.566;6.776;2023-08-20T06:17:44;101853.69;;;19.89;97.49
9325;BME280;4701;51.566;6.776;2023-08-20T06:20:46;101856.94;;;19.91;97.59
9325;BME280;4701;51.566;6.776;2023-08-20T06:23:48;101859.94;;;19.94;97.82
9325;BME280;4701;51.566;6.776;2023-08-20T06:26:49;101861.00;;;19.98;98.02
9325;BME280;4701;51.566;6.776;2023-08-20T06:29:52;101863.94;;;20.02;98.24
9325;BME280;4701;51.566;6.776;2023-08-20T06:32:54;101856.19;;;20.04;98.21
9325;BME280;4701;51.566;6.776;2023-08-20T06:35:55;101861.13;;;20.07;98.56
9325;BME280;4701;51.566;6.776;2023-08-20T06:38:57;101859.38;;;20.11;98.61
9325;BME280;4701;51.566;6.776;2023-08-20T06:41:58;101852.13;;;20.15;98.90
9325;BME280;4701;51.566;6.776;2023-08-20T06:45:02;101860.63;;;20.19;99.06
9325;BME280;4701;51.566;6.776;2023-08-20T06:48:04;101862.78;;;20.22;99.27
9325;BME280;4701;51.566;6.776;2023-08-20T06:51:11;101854.38;;;20.27;99.52
9325;BME280;4701;51.566;6.776;2023-08-20T06:54:14;101862.06;;;20.30;99.63
9325;BME280;4701;51.566;6.776;2023-08-20T06:57:16;101865.91;;;20.34;99.70
9325;BME280;4701;51.566;6.776;2023-08-20T07:00:19;101862.53;;;20.37;99.84
9325;BME280;4701;51.566;6.776;2023-08-20T07:03:22;101871.88;;;20.41;100.00
9325;BME280;4701;51.566;6.776;2023-08-20T07:06:23;101866.53;;;20.45;100.00
9325;BME280;4701;51.566;6.776;2023-08-20T07:09:25;101859.28;;;20.49;100.00
9325;BME280;4701;51.566;6.776;2023-08-20T07:12:27;101861.09;;;20.53;100.00
9325;BME280;4701;51.566;6.776;2023-08-20T07:15:30;101864.91;;;20.57;100.00
9325;BME280;4701;51.566;6.776;2023-08-20T07:18:32;101860.41;;;20.61;100.00
9325;BME280;4701;51.566;6.776;2023-08-20T07:21:33;101853.44;;;20.64;100.00
9325;BME280;4701;51.566;6.776;2023-08-20T07:24:35;101855.25;;;20.68;100.00
9325;BME280;4701;51.566;6.776;2023-08-20T07:27:37;101864.31;;;20.74;100.00
9325;BME280;4701;51.566;6.776;2023-08-20T07:30:40;101862.53;;;20.78;100.00
9325;BME280;4701;51.566;6.776;2023-08-20T07:33:45;101860.00;;;20.82;100.00
9325;BME280;4701;51.566;6.776;2023-08-20T07:36:47;101866.53;;;20.86;100.00
9325;BME280;4701;51.566;6.776;2023-08-20T07:39:48;101860.09;;;20.90;100.00
9325;BME280;4701;51.566;6.776;2023-08-20T07:42:50;101863.03;;;20.94;100.00
9325;BME280;4701;51.566;6.776;2023-08-20T07:45:53;101864.09;;;20.98;100.00
9325;BME280;4701;51.566;6.776;2023-08-20T07:48:55;101867.88;;;21.02;100.00
9325;BME280;4701;51.566;6.776;2023-08-20T07:51:56;101875.25;;;21.06;100.00
9325;BME280;4701;51.566;6.776;2023-08-20T07:54:58;101874.31;;;21.11;100.00
9325;BME280;4701;51.566;6.776;2023-08-20T07:58:00;101865.09;;;21.15;100.00
9325;BME280;4701;51.566;6.776;2023-08-20T08:01:02;101867.78;;;21.21;100.00
9325;BME280;4701;51.566;6.776;2023-08-20T08:04:04;101865.72;;;21.26;100.00
9325;BME280;4701;51.566;6.776;2023-08-20T08:07:06;101862.00;;;21.31;100.00
9325;BME280;4701;51.566;6.776;2023-08-20T08:10:08;101867.75;;;21.34;100.00
9325;BME280;4701;51.566;6.776;2023-08-20T08:13:10;101865.16;;;21.38;100.00
9325;BME280;4701;51.566;6.776;2023-08-20T08:16:13;101878.09;;;21.42;100.00
9325;BME280;4701;51.566;6.776;2023-08-20T08:19:15;101880.25;;;21.45;100.00
9325;BME280;4701;51.566;6.776;2023-08-20T08:22:16;101876.53;;;21.50;100.00
9325;BME280;4701;51.566;6.776;2023-08-20T08:25:18;101875.59;;;21.55;100.00
9325;BME280;4701;51.566;6.776;2023-08-20T08:28:20;101875.50;;;21.60;100.00
9325;BME280;4701;51.566;6.776;2023-08-20T08:31:23;101880.91;;;21.65;100.00
9325;BME280;4701;51.566;6.776;2023-08-20T08:34:25;101873.91;;;21.67;100.00
9325;BME280;4701;51.566;6.776;2023-08-20T08:37:26;101879.34;;;21.72;100.00
9325;BME280;4701;51.566;6.776;2023-08-20T08:40:28;101883.13;;;21.76;100.00
9325;BME280;4701;51.566;6.776;2023-08-20T08:43:31;101879.72;;;21.79;100.00
9325;BME280;4701;51.566;6.776;2023-08-20T08:46:35;101885.97;;;21.85;100.00
9325;BME280;4701;51.566;6.776;2023-08-20T08:49:37;101890.88;;;21.88;100.00
9325;BME280;4701;51.566;6.776;2023-08-20T08:52:39;101887.47;;;21.91;100.00
9325;BME280;4701;51.566;6.776;2023-08-20T08:55:42;101892.41;;;21.94;100.00
9325;BME280;4701;51.566;6.776;2023-08-20T08:58:44;101890.94;;;21.97;100.00
